Time;durP1;ratioP1;P1;durP2;ratioP2;P2;SDS_P1;SDS_P2;PMS_P1;PMS_P2;Temp;Humidity;BMP_temperature;BMP_pressure;BME280_temperature;BME280_humidity;BME280_pressure;Samples;Min_cycle;Max_cycle;Signal;HPM_P1;HPM_P2
2023/07/04 00:02:30;;;;;;;7.40;4.17;;;;;;;;;;4974123;28;20211;-73
2023/07/04 00:05:35;;;;;;;8.60;4.00;;;;;;;;;;4974138;28;20211;-71
2023/07/04 00:08:39;;;;;;;7.70;4.30;;;;;;;;;;4973946;28;20182;-73
2023/07/04 00:11:43;;;;;;;8.20;4.10;;;;;;;;;;4975113;28;20219;-73
2023/07/04 00:14:47;;;;;;;9.27;4.73;;;;;;;;;;4975582;28;20183;-73
2023/07/04 00:17:52;;;;;;;7.73;4.50;;;;;;;;;;4974851;28;20183;-71
2023/07/04 00:20:58;;;;;;;8.47;4.10;;;;;;;;;;4974726;28;20658;-73
2023/07/04 00:24:03;;;;;;;8.97;4.77;;;;;;;;;;4974516;28;20187;-73
2023/07/04 00:27:07;;;;;;;7.03;4.27;;;;;;;;;;4974663;28;20198;-73
2023/07/04 00:30:12;;;;;;;8.50;4.73;;;;;;;;;;4973866;28;20183;-72
2023/07/04 00:33:16;;;;;;;7.33;4.30;;;;;;;;;;4984627;28;20222;-71
2023/07/04 00:36:20;;;;;;;9.23;4.37;;;;;;;;;;4973818;28;20187;-71
2023/07/04 00:39:24;;;;;;;9.03;4.63;;;;;;;;;;4973608;28;20182;-73
2023/07/04 00:42:29;;;;;;;9.07;4.17;;;;;;;;;;4974469;28;20207;-71
2023/07/04 00:45:38;;;;;;;10.50;4.80;;;;;;;;;;4974732;28;20191;-72
2023/07/04 00:48:45;;;;;;;5.57;4.03;;;;;;;;;;4985133;28;20182;-73
2023/07/04 00:51:59;;;;;;;7.43;4.30;;;;;;;;;;4974132;28;20210;-73
2023/07/04 00:55:08;;;;;;;7.53;3.73;;;;;;;;;;4974222;28;20187;-72
2023/07/04 00:58:12;;;;;;;8.77;4.63;;;;;;;;;;4974741;28;20183;-73
2023/07/04 01:01:18;;;;;;;6.47;4.03;;;;;;;;;;4973324;28;20211;-72
2023/07/04 01:04:23;;;;;;;6.53;4.20;;;;;;;;;;4974049;28;20198;-72
2023/07/04 01:07:39;;;;;;;8.43;4.43;;;;;;;;;;4984403;28;20179;-73
2023/07/04 01:10:46;;;;;;;8.20;4.67;;;;;;;;;;4974615;28;20622;-73
2023/07/04 01:13:50;;;;;;;7.87;4.40;;;;;;;;;;4988557;28;20183;-73
2023/07/04 01:16:55;;;;;;;9.10;4.23;;;;;;;;;;4965943;28;20187;-72
2023/07/04 01:20:00;;;;;;;10.33;4.07;;;;;;;;;;4977528;28;20183;-71
2023/07/04 01:23:18;;;;;;;6.83;4.30;;;;;;;;;;4976876;28;20551;-71
2023/07/04 01:26:31;;;;;;;8.27;4.47;;;;;;;;;;4977124;28;20187;-73
2023/07/04 01:29:36;;;;;;;8.17;4.87;;;;;;;;;;4976863;28;20190;-73
2023/07/04 01:32:41;;;;;;;8.00;4.47;;;;;;;;;;4987902;28;20214;-71
2023/07/04 01:35:45;;;;;;;7.77;4.37;;;;;;;;;;4988063;28;20519;-73
2023/07/04 01:38:49;;;;;;;10.40;4.47;;;;;;;;;;4988264;28;20187;-72
2023/07/04 01:41:54;;;;;;;8.53;4.73;;;;;;;;;;4987919;28;20238;-72
2023/07/04 01:45:03;;;;;;;6.03;4.33;;;;;;;;;;4976471;28;20187;-73
2023/07/04 01:48:08;;;;;;;12.07;4.90;;;;;;;;;;4977503;28;20527;-73
2023/07/04 01:51:13;;;;;;;8.43;4.67;;;;;;;;;;4977382;28;20179;-72
2023/07/04 01:54:18;;;;;;;6.93;4.30;;;;;;;;;;4977367;28;20191;-72
2023/07/04 01:57:23;;;;;;;7.40;4.30;;;;;;;;;;4988100;28;20179;-73
2023/07/04 02:00:30;;;;;;;9.87;4.73;;;;;;;;;;4965106;28;20179;-73
2023/07/04 02:03:36;;;;;;;9.70;5.10;;;;;;;;;;4977228;28;20530;-73
2023/07/04 02:06:40;;;;;;;7.53;4.53;;;;;;;;;;4976654;28;20187;-73
2023/07/04 02:09:44;;;;;;;7.20;4.10;;;;;;;;;;4976100;28;20183;-72
2023/07/04 02:12:48;;;;;;;7.43;4.20;;;;;;;;;;4976804;28;20211;-73
2023/07/04 02:15:54;;;;;;;7.40;4.07;;;;;;;;;;4976328;28;20535;-73
2023/07/04 02:18:58;;;;;;;8.47;4.57;;;;;;;;;;4987585;28;20531;-73
2023/07/04 02:22:02;;;;;;;8.13;4.30;;;;;;;;;;4976028;28;20571;-73
2023/07/04 02:25:06;;;;;;;7.37;4.60;;;;;;;;;;4987494;28;20183;-73
2023/07/04 02:28:11;;;;;;;8.47;4.53;;;;;;;;;;4976002;28;20179;-73
2023/07/04 02:31:15;;;;;;;6.87;4.43;;;;;;;;;;4975949;28;20179;-73
2023/07/04 02:34:19;;;;;;;10.20;4.53;;;;;;;;;;4975917;28;20179;-73
2023/07/04 02:37:23;;;;;;;7.43;4.97;;;;;;;;;;4986906;28;20215;-73
2023/07/04 02:40:27;;;;;;;8.30;4.37;;;;;;;;;;4976561;28;20179;-73
2023/07/04 02:43:34;;;;;;;7.17;4.37;;;;;;;;;;4964792;28;20642;-73
2023/07/04 02:46:39;;;;;;;7.47;4.07;;;;;;;;;;4975453;28;20187;-73
2023/07/04 02:49:46;;;;;;;6.90;4.00;;;;;;;;;;4976450;28;20186;-73
2023/07/04 02:52:50;;;;;;;5.70;3.57;;;;;;;;;;4975218;28;20214;-73
2023/07/04 02:55:55;;;;;;;6.13;3.67;;;;;;;;;;4986438;28;20187;-73
2023/07/04 02:59:02;;;;;;;7.20;3.90;;;;;;;;;;4986422;28;20637;-73
2023/07/04 03:02:06;;;;;;;6.17;3.87;;;;;;;;;;4986364;28;20230;-73
2023/07/04 03:05:12;;;;;;;7.80;4.07;;;;;;;;;;4998875;22;20704;-73
2023/07/04 03:08:16;;;;;;;7.93;4.17;;;;;;;;;;4994636;28;20190;-73
2023/07/04 03:11:22;;;;;;;6.00;3.90;;;;;;;;;;5006221;28;20179;-74
2023/07/04 03:14:27;;;;;;;6.93;3.63;;;;;;;;;;4995095;28;20514;-73
2023/07/04 03:17:30;;;;;;;6.67;3.90;;;;;;;;;;4994967;28;20205;-73
2023/07/04 03:20:36;;;;;;;10.37;4.00;;;;;;;;;;4995032;28;20182;-73
2023/07/04 03:23:40;;;;;;;9.23;4.10;;;;;;;;;;4994362;28;20187;-73
2023/07/04 03:26:46;;;;;;;8.53;4.10;;;;;;;;;;4994518;28;20186;-73
2023/07/04 03:29:52;;;;;;;6.27;3.53;;;;;;;;;;4994355;28;20221;-73
2023/07/04 03:32:56;;;;;;;7.97;3.83;;;;;;;;;;4972459;28;20688;-73
2023/07/04 03:36:02;;;;;;;8.27;4.00;;;;;;;;;;4971304;28;20187;-73
2023/07/04 03:39:07;;;;;;;6.23;4.10;;;;;;;;;;4994630;28;20629;-73
2023/07/04 03:42:11;;;;;;;8.50;4.17;;;;;;;;;;4993898;28;20707;-73
2023/07/04 03:45:15;;;;;;;7.27;4.10;;;;;;;;;;4993988;28;20539;-73
2023/07/04 03:48:22;;;;;;;6.57;4.13;;;;;;;;;;4993918;28;20178;-73
2023/07/04 03:51:26;;;;;;;9.80;3.50;;;;;;;;;;4993607;28;20217;-73
2023/07/04 03:54:30;;;;;;;9.40;4.37;;;;;;;;;;4993933;28;20198;-73
2023/07/04 03:57:34;;;;;;;7.23;4.20;;;;;;;;;;4994024;28;20182;-73
2023/07/04 04:00:38;;;;;;;7.87;3.93;;;;;;;;;;4993669;28;20541;-73
2023/07/04 04:03:42;;;;;;;8.10;4.17;;;;;;;;;;4994361;28;20676;-73
2023/07/04 04:06:52;;;;;;;7.67;4.20;;;;;;;;;;4994833;28;20625;-73
2023/07/04 04:09:56;;;;;;;10.67;4.27;;;;;;;;;;4994469;28;20183;-73
2023/07/04 04:13:00;;;;;;;7.43;4.37;;;;;;;;;;4993752;28;20222;-73
2023/07/04 04:16:04;;;;;;;6.27;3.97;;;;;;;;;;4994301;28;20182;-73
2023/07/04 04:19:08;;;;;;;6.23;4.00;;;;;;;;;;4994667;28;20182;-73
2023/07/04 04:22:14;;;;;;;7.97;3.77;;;;;;;;;;4994158;28;20724;-73
2023/07/04 04:25:18;;;;;;;7.47;3.97;;;;;;;;;;4994211;28;20177;-73
2023/07/04 04:28:22;;;;;;;7.53;3.70;;;;;;;;;;4994406;28;20186;-73
2023/07/04 04:31:26;;;;;;;5.17;3.60;;;;;;;;;;4982186;28;20217;-73
2023/07/04 04:34:30;;;;;;;8.03;3.30;;;;;;;;;;4994600;28;20185;-73
2023/07/04 04:37:35;;;;;;;3.90;3.10;;;;;;;;;;4993464;28;20182;-73
2023/07/04 04:40:39;;;;;;;5.83;3.33;;;;;;;;;;4993449;28;20178;-73
2023/07/04 04:43:43;;;;;;;6.20;3.07;;;;;;;;;;4994483;28;20186;-73
2023/07/04 04:46:49;;;;;;;7.70;3.17;;;;;;;;;;4996379;28;20182;-73
2023/07/04 04:49:56;;;;;;;3.90;2.83;;;;;;;;;;4998675;28;20185;-74
2023/07/04 04:53:00;;;;;;;7.20;2.97;;;;;;;;;;4998284;28;20213;-72
2023/07/04 04:56:06;;;;;;;5.10;2.83;;;;;;;;;;4998625;28;20182;-72
2023/07/04 04:59:11;;;;;;;6.93;2.90;;;;;;;;;;4998817;28;20197;-73
2023/07/04 05:02:16;;;;;;;6.47;3.10;;;;;;;;;;4998004;28;20229;-73
2023/07/04 05:05:20;;;;;;;8.53;3.20;;;;;;;;;;4998136;28;20205;-73
2023/07/04 05:08:24;;;;;;;8.23;3.63;;;;;;;;;;4998126;28;20202;-73
2023/07/04 05:11:31;;;;;;;6.23;3.53;;;;;;;;;;4998123;28;20217;-72
2023/07/04 05:14:35;;;;;;;6.30;3.00;;;;;;;;;;4998536;28;20175;-72
2023/07/04 05:17:39;;;;;;;7.60;3.67;;;;;;;;;;4998056;28;20174;-72
2023/07/04 05:20:43;;;;;;;5.20;3.47;;;;;;;;;;4998083;28;20182;-72
2023/07/04 05:23:49;;;;;;;7.93;3.20;;;;;;;;;;4997080;28;20542;-73
2023/07/04 05:26:53;;;;;;;6.97;3.63;;;;;;;;;;4998032;28;20186;-72
2023/07/04 05:29:57;;;;;;;6.23;3.47;;;;;;;;;;4998299;28;20522;-72
2023/07/04 05:33:01;;;;;;;7.80;3.50;;;;;;;;;;4997287;28;20209;-72
2023/07/04 05:36:08;;;;;;;4.27;2.40;;;;;;;;;;4985913;28;20178;-72
2023/07/04 05:39:12;;;;;;;4.93;2.80;;;;;;;;;;4996828;28;20182;-73
2023/07/04 05:42:17;;;;;;;5.13;3.30;;;;;;;;;;4997363;28;20720;-72
2023/07/04 05:45:21;;;;;;;5.30;3.13;;;;;;;;;;4996337;28;20178;-72
2023/07/04 05:48:25;;;;;;;6.33;3.17;;;;;;;;;;4997314;28;20183;-72
2023/07/04 05:51:30;;;;;;;5.50;2.70;;;;;;;;;;4997523;28;20218;-73
2023/07/04 05:54:34;;;;;;;7.33;3.10;;;;;;;;;;4997008;28;20182;-73
2023/07/04 05:57:38;;;;;;;5.90;2.80;;;;;;;;;;4996518;28;20175;-73
2023/07/04 06:00:43;;;;;;;5.57;2.63;;;;;;;;;;4996123;28;20182;-73
2023/07/04 06:03:48;;;;;;;4.30;2.70;;;;;;;;;;4997119;28;20229;-73
2023/07/04 06:06:53;;;;;;;4.50;2.63;;;;;;;;;;4996389;28;20178;-72
2023/07/04 06:09:57;;;;;;;3.30;2.23;;;;;;;;;;4996041;28;20178;-73
2023/07/04 06:13:01;;;;;;;5.43;2.40;;;;;;;;;;4995927;28;20217;-72
2023/07/04 06:16:05;;;;;;;4.00;2.50;;;;;;;;;;4995794;28;20182;-72
2023/07/04 06:19:09;;;;;;;4.03;2.50;;;;;;;;;;4996438;28;20182;-72
2023/07/04 06:22:13;;;;;;;4.33;2.20;;;;;;;;;;4996392;28;20226;-73
2023/07/04 06:25:17;;;;;;;4.27;2.67;;;;;;;;;;4996588;28;20174;-73
2023/07/04 06:28:21;;;;;;;3.70;2.60;;;;;;;;;;4995710;28;20198;-72
2023/07/04 06:31:26;;;;;;;3.47;2.20;;;;;;;;;;4995617;28;20526;-73
2023/07/04 06:34:30;;;;;;;3.53;2.00;;;;;;;;;;4996434;28;20174;-73
2023/07/04 06:37:35;;;;;;;3.17;2.37;;;;;;;;;;4995454;28;20538;-73
2023/07/04 06:40:40;;;;;;;2.90;2.07;;;;;;;;;;4996299;28;20638;-73
2023/07/04 06:43:46;;;;;;;3.30;2.00;;;;;;;;;;4995462;28;20664;-72
2023/07/04 06:46:50;;;;;;;4.43;2.20;;;;;;;;;;4995052;28;20174;-73
2023/07/04 06:49:54;;;;;;;2.83;2.00;;;;;;;;;;4996060;28;20178;-73
2023/07/04 06:52:58;;;;;;;3.73;2.13;;;;;;;;;;4995658;28;20210;-73
2023/07/04 06:56:05;;;;;;;3.43;2.00;;;;;;;;;;4995630;28;20190;-73
2023/07/04 06:59:09;;;;;;;3.17;2.20;;;;;;;;;;4995291;28;20182;-73
2023/07/04 07:02:14;;;;;;;3.07;1.80;;;;;;;;;;4994703;28;20213;-72
2023/07/04 07:05:18;;;;;;;3.43;1.87;;;;;;;;;;4995578;28;20202;-73
2023/07/04 07:08:23;;;;;;;3.60;2.30;;;;;;;;;;4995356;28;20641;-73
2023/07/04 07:11:27;;;;;;;3.10;1.87;;;;;;;;;;4994506;28;20218;-73
2023/07/04 07:14:33;;;;;;;2.50;1.70;;;;;;;;;;4994424;28;20170;-73
2023/07/04 07:17:37;;;;;;;3.10;1.93;;;;;;;;;;4994747;28;20626;-73
2023/07/04 07:20:41;;;;;;;2.67;1.70;;;;;;;;;;4995298;28;20181;-73
2023/07/04 07:23:47;;;;;;;2.50;1.80;;;;;;;;;;4994219;28;20226;-73
2023/07/04 07:26:51;;;;;;;3.03;1.73;;;;;;;;;;4994827;28;20625;-73
2023/07/04 07:29:55;;;;;;;6.07;2.03;;;;;;;;;;4995003;28;20178;-73
2023/07/04 07:32:59;;;;;;;3.37;2.03;;;;;;;;;;4994855;28;20210;-73
2023/07/04 07:36:14;;;;;;;4.73;2.03;;;;;;;;;;4994809;28;20186;-73
2023/07/04 07:39:18;;;;;;;3.63;2.33;;;;;;;;;;4994201;28;20186;-73
2023/07/04 07:42:22;;;;;;;3.90;1.80;;;;;;;;;;4994141;28;20218;-73
2023/07/04 07:45:26;;;;;;;3.87;2.20;;;;;;;;;;4994037;28;20196;-73
2023/07/04 07:48:31;;;;;;;3.73;2.10;;;;;;;;;;4994859;28;20180;-73
2023/07/04 07:51:37;;;;;;;4.13;2.37;;;;;;;;;;4994379;28;20563;-73
2023/07/04 07:54:41;;;;;;;3.83;1.90;;;;;;;;;;4994512;28;20641;-73
2023/07/04 07:57:45;;;;;;;4.67;2.13;;;;;;;;;;4993642;28;20661;-73
2023/07/04 08:00:49;;;;;;;4.43;1.70;;;;;;;;;;4994519;28;20179;-73
2023/07/04 08:03:53;;;;;;;4.87;1.73;;;;;;;;;;4993994;28;20672;-74
2023/07/04 08:06:57;;;;;;;3.13;1.90;;;;;;;;;;4994134;28;20180;-73
2023/07/04 08:10:02;;;;;;;5.57;1.83;;;;;;;;;;4993622;28;20179;-73
2023/07/04 08:13:07;;;;;;;2.63;1.80;;;;;;;;;;4994167;28;20210;-73
2023/07/04 08:16:19;;;;;;;4.13;1.97;;;;;;;;;;4994097;28;20179;-73
2023/07/04 08:19:24;;;;;;;3.10;1.97;;;;;;;;;;4994596;28;20184;-73
2023/07/04 08:22:28;;;;;;;3.97;2.00;;;;;;;;;;4970716;28;20568;-73
2023/07/04 08:25:37;;;;;;;3.97;2.20;;;;;;;;;;4982392;28;20184;-73
2023/07/04 08:28:41;;;;;;;5.93;2.13;;;;;;;;;;4994461;28;20179;-73
2023/07/04 08:31:45;;;;;;;3.73;1.97;;;;;;;;;;4994054;28;20567;-73
2023/07/04 08:34:49;;;;;;;4.73;2.00;;;;;;;;;;4993312;28;20189;-73
2023/07/04 08:37:54;;;;;;;7.43;1.80;;;;;;;;;;4993072;28;20186;-74
2023/07/04 08:40:58;;;;;;;3.27;1.97;;;;;;;;;;4993224;28;20189;-73
2023/07/04 08:44:24;;;;;;;4.53;2.10;;;;;;;;;;4993562;28;20217;-73
2023/07/04 08:47:29;;;;;;;2.27;1.60;;;;;;;;;;4993053;28;20183;-73
2023/07/04 08:50:38;;;;;;;5.07;2.20;;;;;;;;;;4993879;28;20194;-73
2023/07/04 08:53:49;;;;;;;4.13;1.90;;;;;;;;;;4993746;28;20184;-73
2023/07/04 08:56:58;;;;;;;4.20;2.03;;;;;;;;;;4993797;28;20186;-73
2023/07/04 09:00:08;;;;;;;2.53;2.03;;;;;;;;;;4992739;28;20197;-74
2023/07/04 09:03:19;;;;;;;4.63;2.45;;;;;;;;;;4992862;28;20231;-74
2023/07/04 09:06:36;;;;;;;4.95;1.95;;;;;;;;;;5025008;22;20229;-71
2023/07/04 09:10:06;;;;;;;7.18;2.10;;;;;;;;;;5013079;28;20529;-70
2023/07/04 09:13:34;;;;;;;5.00;1.95;;;;;;;;;;5013537;28;20214;-72
2023/07/04 09:16:43;;;;;;;5.65;2.30;;;;;;;;;;5013039;28;20187;-72
2023/07/04 09:19:48;;;;;;;3.53;1.80;;;;;;;;;;5012978;28;20200;-71
2023/07/04 09:22:52;;;;;;;3.53;2.05;;;;;;;;;;5001068;28;20216;-71
2023/07/04 09:25:57;;;;;;;2.80;1.80;;;;;;;;;;5013408;28;20627;-71
2023/07/04 09:29:06;;;;;;;3.25;1.92;;;;;;;;;;5013379;28;20176;-71
2023/07/04 09:32:12;;;;;;;2.58;1.80;;;;;;;;;;5012344;28;20223;-71
2023/07/04 09:35:16;;;;;;;2.80;1.85;;;;;;;;;;5016895;28;20172;-71
2023/07/04 09:38:21;;;;;;;1.90;1.50;;;;;;;;;;5016687;28;20182;-71
2023/07/04 09:41:28;;;;;;;3.88;1.70;;;;;;;;;;5015947;28;20181;-71
2023/07/04 09:44:36;;;;;;;4.50;2.88;;;;;;;;;;5004439;28;20228;-71
2023/07/04 09:47:44;;;;;;;4.13;2.28;;;;;;;;;;5016774;28;20193;-71
2023/07/04 09:50:48;;;;;;;3.53;2.10;;;;;;;;;;5016615;28;20189;-71
2023/07/04 09:54:19;;;;;;;4.15;2.50;;;;;;;;;;5015263;28;20200;-71
2023/07/04 09:57:26;;;;;;;4.70;2.63;;;;;;;;;;5016663;28;20185;-71
2023/07/04 10:00:31;;;;;;;3.83;2.25;;;;;;;;;;5016449;28;20181;-71
2023/07/04 10:03:39;;;;;;;4.50;2.42;;;;;;;;;;5015561;28;20216;-71
2023/07/04 10:06:44;;;;;;;3.35;2.47;;;;;;;;;;5015254;28;20201;-71
2023/07/04 10:10:12;;;;;;;5.93;2.72;;;;;;;;;;5016144;28;20182;-71
2023/07/04 10:13:19;;;;;;;3.55;2.67;;;;;;;;;;5015963;28;20213;-71
2023/07/04 10:16:24;;;;;;;4.72;2.20;;;;;;;;;;5015400;28;20614;-71
2023/07/04 10:19:28;;;;;;;4.65;2.08;;;;;;;;;;5015961;28;20629;-71
2023/07/04 10:22:38;;;;;;;3.67;2.17;;;;;;;;;;5015914;28;20692;-70
2023/07/04 10:25:43;;;;;;;4.47;2.50;;;;;;;;;;5015951;28;20182;-70
2023/07/04 10:28:48;;;;;;;4.32;2.90;;;;;;;;;;5015657;28;20718;-70
2023/07/04 10:31:52;;;;;;;3.40;2.90;;;;;;;;;;5014803;28;20215;-70
2023/07/04 10:34:57;;;;;;;6.95;3.10;;;;;;;;;;5015129;28;20180;-69
2023/07/04 10:38:07;;;;;;;6.50;2.38;;;;;;;;;;5014778;28;20181;-70
2023/07/04 10:41:18;;;;;;;3.67;2.80;;;;;;;;;;5003624;28;20188;-70
2023/07/04 10:44:25;;;;;;;5.82;3.20;;;;;;;;;;5014759;28;20211;-70
2023/07/04 10:47:34;;;;;;;5.85;3.15;;;;;;;;;;5015356;28;20196;-70
2023/07/04 10:51:03;;;;;;;5.57;3.08;;;;;;;;;;5015238;28;20189;-71
2023/07/04 10:54:11;;;;;;;13.65;3.10;;;;;;;;;;5015374;28;20182;-70
2023/07/04 10:57:28;;;;;;;6.30;3.03;;;;;;;;;;5015275;28;20187;-70
2023/07/04 11:00:39;;;;;;;5.40;2.95;;;;;;;;;;5014975;28;20188;-71
2023/07/04 11:03:56;;;;;;;5.40;2.83;;;;;;;;;;5003201;28;20549;-71
2023/07/04 11:07:04;;;;;;;6.93;3.20;;;;;;;;;;5015102;28;20647;-70
2023/07/04 11:10:12;;;;;;;5.13;3.20;;;;;;;;;;5015344;28;20641;-72
2023/07/04 11:13:20;;;;;;;6.10;3.10;;;;;;;;;;5014618;28;20218;-72
2023/07/04 11:16:28;;;;;;;7.03;3.70;;;;;;;;;;5014748;28;20189;-72
2023/07/04 11:19:35;;;;;;;5.32;3.25;;;;;;;;;;5015116;28;20176;-72
2023/07/04 11:23:00;;;;;;;4.72;3.30;;;;;;;;;;5013902;28;20221;-72
2023/07/04 11:26:05;;;;;;;5.88;3.17;;;;;;;;;;5002378;28;20180;-70
2023/07/04 11:29:16;;;;;;;7.05;3.13;;;;;;;;;;5014948;28;20186;-70
2023/07/04 11:32:25;;;;;;;7.05;2.97;;;;;;;;;;5014684;28;20561;-70
2023/07/04 11:35:32;;;;;;;8.38;3.50;;;;;;;;;;5013750;28;20178;-70
2023/07/04 11:38:42;;;;;;;5.25;3.35;;;;;;;;;;5013629;28;20182;-71
2023/07/04 11:41:48;;;;;;;4.82;3.45;;;;;;;;;;5014291;28;20209;-71
2023/07/04 11:45:01;;;;;;;6.30;3.70;;;;;;;;;;5014630;28;20209;-71
2023/07/04 11:48:18;;;;;;;6.18;3.40;;;;;;;;;;5014311;28;20182;-72
2023/07/04 11:51:25;;;;;;;6.28;3.50;;;;;;;;;;5014172;28;20523;-72
2023/07/04 11:54:30;;;;;;;4.82;3.40;;;;;;;;;;5001771;28;20194;-72
2023/07/04 11:58:08;;;;;;;5.35;3.42;;;;;;;;;;5013085;28;20186;-71
2023/07/04 12:01:14;;;;;;;7.57;3.80;;;;;;;;;;5013072;28;20186;-71
2023/07/04 12:04:38;;;;;;;8.50;3.70;;;;;;;;;;5013478;28;20217;-71
2023/07/04 12:07:46;;;;;;;5.20;3.60;;;;;;;;;;5013363;28;20190;-71
2023/07/04 12:10:50;;;;;;;6.28;3.92;;;;;;;;;;5012885;28;20637;-71
2023/07/04 12:13:55;;;;;;;5.57;3.45;;;;;;;;;;5013825;28;20173;-71
2023/07/04 12:17:00;;;;;;;6.20;4.32;;;;;;;;;;5013534;28;20182;-71
2023/07/04 12:20:09;;;;;;;10.02;4.22;;;;;;;;;;5014309;28;20181;-71
2023/07/04 12:23:14;;;;;;;8.27;3.78;;;;;;;;;;5013904;28;20612;-71
2023/07/04 12:26:23;;;;;;;7.85;4.05;;;;;;;;;;5012859;28;20186;-71
2023/07/04 12:29:28;;;;;;;17.63;3.83;;;;;;;;;;5013609;28;20186;-71
2023/07/04 12:32:36;;;;;;;8.50;3.97;;;;;;;;;;5013267;28;20228;-72
2023/07/04 12:35:41;;;;;;;8.15;4.22;;;;;;;;;;5012458;28;20645;-72
2023/07/04 12:38:50;;;;;;;9.98;4.03;;;;;;;;;;5013783;28;20182;-71
2023/07/04 12:41:55;;;;;;;8.32;3.95;;;;;;;;;;5013315;28;20210;-71
2023/07/04 12:45:07;;;;;;;4.97;3.83;;;;;;;;;;5013452;28;20206;-72
2023/07/04 12:48:12;;;;;;;9.07;4.22;;;;;;;;;;5012919;28;20182;-72
2023/07/04 12:51:21;;;;;;;9.05;4.43;;;;;;;;;;5013374;28;20182;-72
2023/07/04 12:54:25;;;;;;;8.43;4.05;;;;;;;;;;5013336;28;20193;-72
2023/07/04 12:57:31;;;;;;;7.03;4.03;;;;;;;;;;5012631;28;20189;-71
2023/07/04 13:00:45;;;;;;;6.10;4.22;;;;;;;;;;5012717;28;20178;-72
2023/07/04 13:03:55;;;;;;;6.82;4.55;;;;;;;;;;5013626;28;20182;-72
2023/07/04 13:06:59;;;;;;;4.63;3.55;;;;;;;;;;5013294;28;20660;-72
2023/07/04 13:10:03;;;;;;;5.70;4.20;;;;;;;;;;4994090;28;20181;-72
2023/07/04 13:13:36;;;;;;;6.35;3.92;;;;;;;;;;5016843;28;20579;-72
2023/07/04 13:16:40;;;;;;;7.25;3.75;;;;;;;;;;5016468;28;20178;-72
2023/07/04 13:19:44;;;;;;;7.72;4.30;;;;;;;;;;5016067;28;20178;-71
2023/07/04 13:22:49;;;;;;;7.55;4.60;;;;;;;;;;5016785;28;20217;-71
2023/07/04 13:25:53;;;;;;;8.50;4.47;;;;;;;;;;5016740;28;20209;-71
2023/07/04 13:29:01;;;;;;;6.63;4.07;;;;;;;;;;5017135;28;20174;-72
2023/07/04 13:32:23;;;;;;;6.13;4.43;;;;;;;;;;5016545;28;20218;-71
2023/07/04 13:35:31;;;;;;;8.10;3.95;;;;;;;;;;5004375;28;20174;-71
2023/07/04 13:38:35;;;;;;;6.68;4.25;;;;;;;;;;5016350;28;20186;-71
2023/07/04 13:41:40;;;;;;;8.50;4.20;;;;;;;;;;5016027;28;20554;-71
2023/07/04 13:44:45;;;;;;;6.78;3.95;;;;;;;;;;5016685;28;20221;-72
2023/07/04 13:47:49;;;;;;;6.63;4.30;;;;;;;;;;5016551;28;20637;-71
2023/07/04 13:50:55;;;;;;;7.50;3.75;;;;;;;;;;5016508;28;20174;-71
2023/07/04 13:53:58;;;;;;;7.57;3.90;;;;;;;;;;5015603;28;20182;-71
2023/07/04 13:57:02;;;;;;;6.88;3.80;;;;;;;;;;5004616;28;20632;-72
2023/07/04 14:00:09;;;;;;;6.90;3.88;;;;;;;;;;5016231;28;20178;-71
2023/07/04 14:03:14;;;;;;;8.70;4.20;;;;;;;;;;5016717;28;20213;-71
2023/07/04 14:06:18;;;;;;;5.93;3.40;;;;;;;;;;5015121;28;20225;-71
2023/07/04 14:09:22;;;;;;;4.35;3.70;;;;;;;;;;5015929;28;20197;-70
2023/07/04 14:12:26;;;;;;;5.35;3.72;;;;;;;;;;5015494;28;20217;-72
2023/07/04 14:15:31;;;;;;;5.78;3.70;;;;;;;;;;5015903;28;20183;-71
2023/07/04 14:18:35;;;;;;;9.02;4.43;;;;;;;;;;5003393;28;20631;-71
2023/07/04 14:21:39;;;;;;;11.77;3.67;;;;;;;;;;5015393;28;20676;-71
2023/07/04 14:24:43;;;;;;;5.80;3.45;;;;;;;;;;5016140;28;20217;-71
2023/07/04 14:27:47;;;;;;;8.63;4.00;;;;;;;;;;5015122;28;20186;-71
2023/07/04 14:30:54;;;;;;;4.68;3.20;;;;;;;;;;5015642;28;20182;-71
2023/07/04 14:33:59;;;;;;;7.40;3.45;;;;;;;;;;5015872;28;20182;-71
2023/07/04 14:37:03;;;;;;;7.40;3.58;;;;;;;;;;5014696;28;20633;-71
2023/07/04 14:40:07;;;;;;;5.28;3.45;;;;;;;;;;5015682;28;20545;-71
2023/07/04 14:43:12;;;;;;;6.45;3.63;;;;;;;;;;5015528;28;20225;-71
2023/07/04 14:46:16;;;;;;;6.22;3.50;;;;;;;;;;5015755;28;20217;-71
2023/07/04 14:49:23;;;;;;;5.60;3.53;;;;;;;;;;5015671;28;20515;-71
2023/07/04 14:52:27;;;;;;;6.43;3.78;;;;;;;;;;5015773;28;20213;-71
2023/07/04 14:55:31;;;;;;;6.28;3.45;;;;;;;;;;5015379;28;20174;-73
2023/07/04 14:58:36;;;;;;;5.70;3.60;;;;;;;;;;5015593;28;20517;-71
2023/07/04 15:01:40;;;;;;;7.82;3.72;;;;;;;;;;5015102;28;20700;-71
2023/07/04 15:04:45;;;;;;;5.47;3.20;;;;;;;;;;5014932;28;20541;-71
2023/07/04 15:07:49;;;;;;;5.05;3.35;;;;;;;;;;5014406;28;20190;-71
2023/07/04 15:10:54;;;;;;;6.22;3.67;;;;;;;;;;5029616;22;20241;-70
2023/07/04 15:13:59;;;;;;;7.05;3.67;;;;;;;;;;5006161;28;20514;-73
2023/07/04 15:17:03;;;;;;;5.85;3.55;;;;;;;;;;4994717;28;20179;-70
2023/07/04 15:20:07;;;;;;;7.18;4.07;;;;;;;;;;4995845;28;20178;-71
2023/07/04 15:23:13;;;;;;;5.18;3.80;;;;;;;;;;4995200;28;20222;-73
2023/07/04 15:26:19;;;;;;;7.43;3.50;;;;;;;;;;4995623;28;20219;-73
2023/07/04 15:29:23;;;;;;;5.28;3.50;;;;;;;;;;4995676;28;20183;-72
2023/07/04 15:32:28;;;;;;;4.88;3.17;;;;;;;;;;4994350;28;20218;-73
2023/07/04 15:35:32;;;;;;;8.02;4.13;;;;;;;;;;4995109;28;20183;-73
2023/07/04 15:38:37;;;;;;;7.95;3.35;;;;;;;;;;4995374;28;20179;-73
2023/07/04 15:41:41;;;;;;;6.53;3.80;;;;;;;;;;4995279;28;20550;-73
2023/07/04 15:44:45;;;;;;;6.25;3.88;;;;;;;;;;4995776;28;20622;-83
2023/07/04 15:47:50;;;;;;;8.57;3.60;;;;;;;;;;4995699;28;20657;-73
2023/07/04 15:50:57;;;;;;;5.53;3.65;;;;;;;;;;4996826;28;20183;-72
2023/07/04 15:54:02;;;;;;;8.13;4.10;;;;;;;;;;4997412;28;20191;-72
2023/07/04 15:57:06;;;;;;;10.63;3.50;;;;;;;;;;4997357;28;20183;-72
2023/07/04 16:00:10;;;;;;;5.25;3.78;;;;;;;;;;5008253;28;20179;-73
2023/07/04 16:03:16;;;;;;;5.78;3.72;;;;;;;;;;4996423;28;20700;-72
2023/07/04 16:06:20;;;;;;;5.70;3.30;;;;;;;;;;4996652;28;20214;-72
2023/07/04 16:09:24;;;;;;;6.82;3.58;;;;;;;;;;4996623;28;20185;-73
2023/07/04 16:12:28;;;;;;;7.63;3.80;;;;;;;;;;4985352;28;20220;-72
2023/07/04 16:15:35;;;;;;;4.93;3.47;;;;;;;;;;4997361;28;20517;-73
2023/07/04 16:18:39;;;;;;;5.25;3.10;;;;;;;;;;4997077;28;20185;-72
2023/07/04 16:21:43;;;;;;;6.78;3.25;;;;;;;;;;4996602;28;20220;-72
2023/07/04 16:24:48;;;;;;;4.70;3.67;;;;;;;;;;4996594;28;20199;-72
2023/07/04 16:27:51;;;;;;;8.02;3.30;;;;;;;;;;4974427;28;20517;-72
2023/07/04 16:30:58;;;;;;;7.00;3.53;;;;;;;;;;4997863;28;20643;-73
2023/07/04 16:34:02;;;;;;;4.60;3.35;;;;;;;;;;4997414;28;20188;-73
2023/07/04 16:37:09;;;;;;;4.90;3.17;;;;;;;;;;4985804;28;20177;-73
2023/07/04 16:40:14;;;;;;;6.32;3.50;;;;;;;;;;4997065;28;20189;-73
2023/07/04 16:43:19;;;;;;;7.70;4.50;;;;;;;;;;4995579;28;20212;-72
2023/07/04 16:46:26;;;;;;;7.25;3.40;;;;;;;;;;4996813;28;20221;-73
2023/07/04 16:49:31;;;;;;;4.80;3.28;;;;;;;;;;4996982;28;20200;-73
2023/07/04 16:52:35;;;;;;;5.68;3.30;;;;;;;;;;4996728;28;20220;-73
2023/07/04 16:55:39;;;;;;;5.07;3.13;;;;;;;;;;4997136;28;20185;-73
2023/07/04 16:58:43;;;;;;;7.05;3.50;;;;;;;;;;4997118;28;20185;-73
2023/07/04 17:01:47;;;;;;;5.40;3.28;;;;;;;;;;4996096;28;20218;-72
2023/07/04 17:04:51;;;;;;;4.25;3.13;;;;;;;;;;4996713;28;20179;-72
2023/07/04 17:07:55;;;;;;;5.32;3.30;;;;;;;;;;4995334;28;20181;-73
2023/07/04 17:11:02;;;;;;;5.80;3.25;;;;;;;;;;4982929;28;20204;-73
2023/07/04 17:14:06;;;;;;;4.60;3.20;;;;;;;;;;4994907;28;20185;-73
2023/07/04 17:17:10;;;;;;;4.40;3.00;;;;;;;;;;4995522;28;20200;-73
2023/07/04 17:20:14;;;;;;;4.07;3.05;;;;;;;;;;4982831;28;20184;-73
2023/07/04 17:23:18;;;;;;;5.00;2.97;;;;;;;;;;4982763;28;20215;-73
2023/07/04 17:26:24;;;;;;;6.18;3.53;;;;;;;;;;4994458;28;20211;-73
2023/07/04 17:29:28;;;;;;;4.25;3.15;;;;;;;;;;4994435;28;20174;-74
2023/07/04 17:32:32;;;;;;;4.60;3.45;;;;;;;;;;4982340;28;20203;-73
2023/07/04 17:35:37;;;;;;;4.30;3.35;;;;;;;;;;4993444;28;20179;-74
2023/07/04 17:38:42;;;;;;;5.10;3.10;;;;;;;;;;4994803;28;20183;-73
2023/07/04 17:41:46;;;;;;;4.78;3.03;;;;;;;;;;4994321;28;20212;-73
2023/07/04 17:44:50;;;;;;;5.93;3.38;;;;;;;;;;5004593;28;20183;-73
2023/07/04 17:47:54;;;;;;;6.60;3.17;;;;;;;;;;4993223;28;20542;-73
2023/07/04 17:51:07;;;;;;;4.40;2.90;;;;;;;;;;4994136;28;20190;-73
2023/07/04 17:54:13;;;;;;;4.07;3.08;;;;;;;;;;4994446;28;20644;-73
2023/07/04 17:57:18;;;;;;;5.38;2.63;;;;;;;;;;4997736;28;20194;-74
2023/07/04 18:00:22;;;;;;;5.25;3.30;;;;;;;;;;4997919;28;20185;-74
2023/07/04 18:03:28;;;;;;;8.05;3.05;;;;;;;;;;4997586;28;20211;-73
2023/07/04 18:06:32;;;;;;;9.38;4.20;;;;;;;;;;5007668;28;20208;-74
2023/07/04 18:09:36;;;;;;;10.15;4.22;;;;;;;;;;4997021;28;20183;-74
2023/07/04 18:12:41;;;;;;;19.10;6.00;;;;;;;;;;4996994;28;20219;-74
2023/07/04 18:15:52;;;;;;;4.78;3.25;;;;;;;;;;4996290;28;20637;-76
2023/07/04 18:18:56;;;;;;;6.68;3.55;;;;;;;;;;5007084;28;20205;-74
2023/07/04 18:22:00;;;;;;;6.18;2.90;;;;;;;;;;4984672;28;20558;-73
2023/07/04 18:25:05;;;;;;;4.47;3.17;;;;;;;;;;4996818;28;20178;-72
2023/07/04 18:28:09;;;;;;;7.45;3.47;;;;;;;;;;4997013;28;20177;-73
2023/07/04 18:31:16;;;;;;;4.28;3.10;;;;;;;;;;4996664;28;20180;-73
2023/07/04 18:34:20;;;;;;;4.32;2.60;;;;;;;;;;4996291;28;20183;-73
2023/07/04 18:37:25;;;;;;;3.60;2.80;;;;;;;;;;4996547;28;20183;-73